KNLC

Lemoore NAS (Reeves Field) Airport

Lemoore, California, USA
METAR KNLC 202356Z 03009KT 6SM HZ BKN210 37/06 A2976 RMK AO2 SLP076 RH/14 T03720061 10383 20311 56016
Observed Flight Rules
Aug-20 @ 23:56 UTC (13 minutes ago) Visual Flight Rules
Wind Visibility Clouds Conditions
30° at 9 knots 6 miles
  • Broken at 21,000' AGL
  • Haze
Temperatures Readings
Current 37°C / 99°F
Dewpoint 6°C / 43°F
Humidity 15%
Altimeter 29.76" Hg
Pressure 1007.6 hPa
Elevation 72
METAR KNLC 202356Z 03009KT 6SM HZ BKN210 37/06 A2976 RMK AO2 SLP076 RH/14 T03720061 10383 20311 56016
Observed Flight Rules
Aug-20 @ 23:56 UTC
(13 minutes ago)
VFR
Wind Visibility
30° at 9 knots 6 miles
Clouds
  • Broken at 21,000' AGL
Conditions
  • Haze
Temperature Dewpoint
37°C / 99°F 6°C / 43°F
Humidity Altimeter Pressure
15% 29.76" Hg 1007.6 hPa